Terminal Aerodrome Forecast
Issued by NWS

Home | Current Version | Previous Version | Text Only | Print | Product List | Glossary On
Versions: 1 2 3 4 5 6 7 8 9 10 11 12 13 14 15 16 17 18
000
FTUS44 KJAN 270520
TAFHKS
TAF
KHKS 270520Z 2706/2806 18004KT P6SM SCT040
     FM271000 18003KT 4SM BR SCT015
     FM271500 20006KT P6SM SCT035
     FM272000 17006KT P6SM VCTS BKN050CB=

USA.gov is the U.S. government's official web portal to all federal, state and local government web resources and services.